sensor_id;sensor_type;location;lat;lon;timestamp;P1;durP1;ratioP1;P2;durP2;ratioP2
61756;SDS011;57225;61.460;24.060;2023-07-02T00:01:26;6.00;;;3.10;;
61756;SDS011;57225;61.460;24.060;2023-07-02T00:04:11;7.93;;;3.38;;
61756;SDS011;57225;61.460;24.060;2023-07-02T00:07:00;6.15;;;3.67;;
61756;SDS011;57225;61.460;24.060;2023-07-02T00:09:44;5.85;;;3.67;;
61756;SDS011;57225;61.460;24.060;2023-07-02T00:12:28;5.47;;;3.78;;
61756;SDS011;57225;61.460;24.060;2023-07-02T00:15:13;6.85;;;3.78;;
61756;SDS011;57225;61.460;24.060;2023-07-02T00:17:57;10.40;;;3.42;;
61756;SDS011;57225;61.460;24.060;2023-07-02T00:20:42;6.07;;;3.95;;
61756;SDS011;57225;61.460;24.060;2023-07-02T00:23:27;6.85;;;3.70;;
61756;SDS011;57225;61.460;24.060;2023-07-02T00:26:11;5.47;;;3.65;;
61756;SDS011;57225;61.460;24.060;2023-07-02T00:28:56;6.88;;;3.80;;
61756;SDS011;57225;61.460;24.060;2023-07-02T00:31:40;5.55;;;3.20;;
61756;SDS011;57225;61.460;24.060;2023-07-02T00:34:25;4.38;;;3.40;;
61756;SDS011;57225;61.460;24.060;2023-07-02T00:37:10;5.07;;;3.55;;
61756;SDS011;57225;61.460;24.060;2023-07-02T00:39:54;6.72;;;3.75;;
61756;SDS011;57225;61.460;24.060;2023-07-02T00:42:39;4.70;;;3.65;;
61756;SDS011;57225;61.460;24.060;2023-07-02T00:45:23;8.27;;;3.83;;
61756;SDS011;57225;61.460;24.060;2023-07-02T00:48:11;4.55;;;3.25;;
61756;SDS011;57225;61.460;24.060;2023-07-02T00:50:56;4.20;;;3.00;;
61756;SDS011;57225;61.460;24.060;2023-07-02T00:53:40;4.30;;;3.55;;
61756;SDS011;57225;61.460;24.060;2023-07-02T00:56:25;5.05;;;3.00;;
61756;SDS011;57225;61.460;24.060;2023-07-02T00:59:10;2.97;;;2.67;;
61756;SDS011;57225;61.460;24.060;2023-07-02T01:01:55;5.05;;;3.03;;
61756;SDS011;57225;61.460;24.060;2023-07-02T01:04:40;5.72;;;2.80;;
61756;SDS011;57225;61.460;24.060;2023-07-02T01:07:25;4.22;;;3.20;;
61756;SDS011;57225;61.460;24.060;2023-07-02T01:10:09;6.13;;;2.90;;
61756;SDS011;57225;61.460;24.060;2023-07-02T01:12:54;6.00;;;3.03;;
61756;SDS011;57225;61.460;24.060;2023-07-02T01:15:39;4.55;;;2.90;;
61756;SDS011;57225;61.460;24.060;2023-07-02T01:18:24;5.93;;;3.08;;
61756;SDS011;57225;61.460;24.060;2023-07-02T01:21:09;3.45;;;2.75;;
61756;SDS011;57225;61.460;24.060;2023-07-02T01:23:53;3.08;;;2.78;;
61756;SDS011;57225;61.460;24.060;2023-07-02T01:26:38;3.00;;;2.45;;
61756;SDS011;57225;61.460;24.060;2023-07-02T01:29:22;4.25;;;2.80;;
61756;SDS011;57225;61.460;24.060;2023-07-02T01:32:07;5.20;;;2.80;;
61756;SDS011;57225;61.460;24.060;2023-07-02T01:34:54;3.00;;;2.47;;
61756;SDS011;57225;61.460;24.060;2023-07-02T01:37:38;4.35;;;2.72;;
61756;SDS011;57225;61.460;24.060;2023-07-02T01:40:23;2.67;;;2.20;;
61756;SDS011;57225;61.460;24.060;2023-07-02T01:43:07;5.65;;;2.95;;
61756;SDS011;57225;61.460;24.060;2023-07-02T01:45:52;4.00;;;2.53;;
61756;SDS011;57225;61.460;24.060;2023-07-02T01:48:36;3.35;;;2.55;;
61756;SDS011;57225;61.460;24.060;2023-07-02T01:51:21;2.72;;;2.50;;
61756;SDS011;57225;61.460;24.060;2023-07-02T01:54:05;4.13;;;2.50;;
61756;SDS011;57225;61.460;24.060;2023-07-02T01:56:50;5.10;;;2.60;;
61756;SDS011;57225;61.460;24.060;2023-07-02T01:59:34;4.05;;;2.53;;
61756;SDS011;57225;61.460;24.060;2023-07-02T02:02:19;2.95;;;2.50;;
61756;SDS011;57225;61.460;24.060;2023-07-02T02:05:03;3.80;;;2.50;;
61756;SDS011;57225;61.460;24.060;2023-07-02T02:07:48;6.43;;;2.40;;
61756;SDS011;57225;61.460;24.060;2023-07-02T02:10:33;2.88;;;2.45;;
61756;SDS011;57225;61.460;24.060;2023-07-02T02:13:18;5.38;;;2.78;;
61756;SDS011;57225;61.460;24.060;2023-07-02T02:16:02;5.50;;;2.53;;
61756;SDS011;57225;61.460;24.060;2023-07-02T02:18:46;3.28;;;2.47;;
61756;SDS011;57225;61.460;24.060;2023-07-02T02:21:31;6.40;;;2.50;;
61756;SDS011;57225;61.460;24.060;2023-07-02T02:24:15;4.97;;;2.40;;
61756;SDS011;57225;61.460;24.060;2023-07-02T02:27:00;2.25;;;2.05;;
61756;SDS011;57225;61.460;24.060;2023-07-02T02:29:45;3.67;;;1.70;;
61756;SDS011;57225;61.460;24.060;2023-07-02T02:32:29;2.33;;;1.65;;
61756;SDS011;57225;61.460;24.060;2023-07-02T02:35:14;1.45;;;1.35;;
61756;SDS011;57225;61.460;24.060;2023-07-02T02:38:00;2.95;;;1.70;;
61756;SDS011;57225;61.460;24.060;2023-07-02T02:40:46;3.13;;;2.10;;
61756;SDS011;57225;61.460;24.060;2023-07-02T02:43:30;3.20;;;1.70;;
61756;SDS011;57225;61.460;24.060;2023-07-02T02:46:19;2.13;;;1.80;;
61756;SDS011;57225;61.460;24.060;2023-07-02T02:49:07;4.25;;;1.85;;
61756;SDS011;57225;61.460;24.060;2023-07-02T02:51:52;1.80;;;1.52;;
61756;SDS011;57225;61.460;24.060;2023-07-02T02:54:36;1.80;;;1.70;;
61756;SDS011;57225;61.460;24.060;2023-07-02T02:57:21;2.45;;;1.73;;
61756;SDS011;57225;61.460;24.060;2023-07-02T03:00:05;3.90;;;2.13;;
61756;SDS011;57225;61.460;24.060;2023-07-02T03:02:53;3.25;;;1.98;;
61756;SDS011;57225;61.460;24.060;2023-07-02T03:05:37;3.67;;;2.17;;
61756;SDS011;57225;61.460;24.060;2023-07-02T03:08:22;7.05;;;2.00;;
61756;SDS011;57225;61.460;24.060;2023-07-02T03:11:06;3.33;;;2.25;;
61756;SDS011;57225;61.460;24.060;2023-07-02T03:13:50;3.67;;;2.42;;
61756;SDS011;57225;61.460;24.060;2023-07-02T03:16:35;2.50;;;2.25;;
61756;SDS011;57225;61.460;24.060;2023-07-02T03:19:19;4.53;;;2.30;;
61756;SDS011;57225;61.460;24.060;2023-07-02T03:22:04;5.90;;;2.55;;
61756;SDS011;57225;61.460;24.060;2023-07-02T03:24:48;3.28;;;2.40;;
61756;SDS011;57225;61.460;24.060;2023-07-02T03:27:33;3.30;;;2.70;;
61756;SDS011;57225;61.460;24.060;2023-07-02T03:30:18;3.42;;;2.60;;
61756;SDS011;57225;61.460;24.060;2023-07-02T03:33:02;2.88;;;2.10;;
61756;SDS011;57225;61.460;24.060;2023-07-02T03:35:47;3.80;;;2.50;;
61756;SDS011;57225;61.460;24.060;2023-07-02T03:38:31;5.05;;;3.10;;
61756;SDS011;57225;61.460;24.060;2023-07-02T03:41:16;4.75;;;2.63;;
61756;SDS011;57225;61.460;24.060;2023-07-02T03:44:00;3.65;;;2.55;;
61756;SDS011;57225;61.460;24.060;2023-07-02T03:46:45;6.82;;;2.78;;
61756;SDS011;57225;61.460;24.060;2023-07-02T03:49:29;6.45;;;3.20;;
61756;SDS011;57225;61.460;24.060;2023-07-02T03:52:13;3.85;;;2.67;;
61756;SDS011;57225;61.460;24.060;2023-07-02T03:54:58;4.50;;;3.00;;
61756;SDS011;57225;61.460;24.060;2023-07-02T03:57:43;5.30;;;2.88;;
61756;SDS011;57225;61.460;24.060;2023-07-02T04:00:27;4.45;;;3.03;;
61756;SDS011;57225;61.460;24.060;2023-07-02T04:03:12;3.00;;;2.40;;
61756;SDS011;57225;61.460;24.060;2023-07-02T04:05:56;3.10;;;2.53;;
61756;SDS011;57225;61.460;24.060;2023-07-02T04:08:41;3.38;;;2.60;;
61756;SDS011;57225;61.460;24.060;2023-07-02T04:11:25;4.80;;;2.60;;
61756;SDS011;57225;61.460;24.060;2023-07-02T04:14:09;5.20;;;3.40;;
61756;SDS011;57225;61.460;24.060;2023-07-02T04:16:54;4.45;;;3.10;;
61756;SDS011;57225;61.460;24.060;2023-07-02T04:19:38;8.82;;;3.50;;
61756;SDS011;57225;61.460;24.060;2023-07-02T04:22:23;7.60;;;3.72;;
61756;SDS011;57225;61.460;24.060;2023-07-02T04:25:07;4.13;;;3.17;;
61756;SDS011;57225;61.460;24.060;2023-07-02T04:27:52;5.78;;;3.67;;
61756;SDS011;57225;61.460;24.060;2023-07-02T04:30:40;5.10;;;3.72;;
61756;SDS011;57225;61.460;24.060;2023-07-02T04:33:26;4.78;;;3.65;;
61756;SDS011;57225;61.460;24.060;2023-07-02T04:36:16;4.75;;;3.60;;
61756;SDS011;57225;61.460;24.060;2023-07-02T04:39:00;5.15;;;3.50;;
61756;SDS011;57225;61.460;24.060;2023-07-02T04:41:45;3.65;;;3.20;;
61756;SDS011;57225;61.460;24.060;2023-07-02T04:44:29;8.38;;;3.25;;
61756;SDS011;57225;61.460;24.060;2023-07-02T04:47:14;4.75;;;3.72;;
61756;SDS011;57225;61.460;24.060;2023-07-02T04:49:58;4.22;;;3.33;;
61756;SDS011;57225;61.460;24.060;2023-07-02T04:52:43;3.72;;;3.40;;
61756;SDS011;57225;61.460;24.060;2023-07-02T04:55:28;5.07;;;3.30;;
61756;SDS011;57225;61.460;24.060;2023-07-02T04:58:12;3.90;;;3.25;;
61756;SDS011;57225;61.460;24.060;2023-07-02T05:00:57;5.28;;;3.40;;
61756;SDS011;57225;61.460;24.060;2023-07-02T05:03:41;6.75;;;4.07;;
61756;SDS011;57225;61.460;24.060;2023-07-02T05:06:26;5.45;;;4.13;;
61756;SDS011;57225;61.460;24.060;2023-07-02T05:09:10;6.82;;;4.47;;
61756;SDS011;57225;61.460;24.060;2023-07-02T05:11:54;7.50;;;4.13;;
61756;SDS011;57225;61.460;24.060;2023-07-02T05:14:39;6.57;;;4.53;;
61756;SDS011;57225;61.460;24.060;2023-07-02T05:17:23;6.45;;;4.25;;
61756;SDS011;57225;61.460;24.060;2023-07-02T05:20:08;5.53;;;4.13;;
61756;SDS011;57225;61.460;24.060;2023-07-02T05:22:53;7.75;;;4.07;;
61756;SDS011;57225;61.460;24.060;2023-07-02T05:25:37;4.45;;;3.92;;
61756;SDS011;57225;61.460;24.060;2023-07-02T05:28:22;6.35;;;4.18;;
61756;SDS011;57225;61.460;24.060;2023-07-02T05:31:07;4.38;;;3.78;;
61756;SDS011;57225;61.460;24.060;2023-07-02T05:33:53;4.90;;;4.13;;
61756;SDS011;57225;61.460;24.060;2023-07-02T05:36:39;5.13;;;4.10;;
61756;SDS011;57225;61.460;24.060;2023-07-02T05:39:24;6.05;;;3.85;;
61756;SDS011;57225;61.460;24.060;2023-07-02T05:42:08;5.35;;;4.18;;
61756;SDS011;57225;61.460;24.060;2023-07-02T05:44:53;5.85;;;4.43;;
61756;SDS011;57225;61.460;24.060;2023-07-02T05:47:37;7.65;;;4.07;;
61756;SDS011;57225;61.460;24.060;2023-07-02T05:50:21;6.80;;;4.50;;
61756;SDS011;57225;61.460;24.060;2023-07-02T05:53:13;4.78;;;4.25;;
61756;SDS011;57225;61.460;24.060;2023-07-02T05:55:57;6.68;;;4.68;;
61756;SDS011;57225;61.460;24.060;2023-07-02T05:58:41;5.78;;;4.78;;
61756;SDS011;57225;61.460;24.060;2023-07-02T06:01:26;5.70;;;4.45;;
61756;SDS011;57225;61.460;24.060;2023-07-02T06:04:10;5.20;;;4.38;;
61756;SDS011;57225;61.460;24.060;2023-07-02T06:06:55;7.47;;;4.15;;
61756;SDS011;57225;61.460;24.060;2023-07-02T06:09:40;7.25;;;4.78;;
61756;SDS011;57225;61.460;24.060;2023-07-02T06:12:24;5.38;;;4.38;;
61756;SDS011;57225;61.460;24.060;2023-07-02T06:15:09;5.20;;;4.00;;
61756;SDS011;57225;61.460;24.060;2023-07-02T06:17:54;6.65;;;3.92;;
61756;SDS011;57225;61.460;24.060;2023-07-02T06:20:38;4.90;;;4.18;;
61756;SDS011;57225;61.460;24.060;2023-07-02T06:23:23;4.80;;;4.20;;
61756;SDS011;57225;61.460;24.060;2023-07-02T06:26:07;5.90;;;4.78;;
61756;SDS011;57225;61.460;24.060;2023-07-02T06:28:52;5.18;;;4.32;;
61756;SDS011;57225;61.460;24.060;2023-07-02T06:31:37;6.28;;;4.60;;
61756;SDS011;57225;61.460;24.060;2023-07-02T06:34:21;5.43;;;4.70;;
61756;SDS011;57225;61.460;24.060;2023-07-02T06:37:05;6.50;;;4.50;;
61756;SDS011;57225;61.460;24.060;2023-07-02T06:39:50;5.13;;;4.40;;
61756;SDS011;57225;61.460;24.060;2023-07-02T06:42:34;5.82;;;4.60;;
61756;SDS011;57225;61.460;24.060;2023-07-02T06:45:21;4.63;;;4.13;;
61756;SDS011;57225;61.460;24.060;2023-07-02T06:48:06;5.75;;;4.53;;
61756;SDS011;57225;61.460;24.060;2023-07-02T06:50:51;7.82;;;4.78;;
61756;SDS011;57225;61.460;24.060;2023-07-02T06:53:35;5.50;;;4.63;;
61756;SDS011;57225;61.460;24.060;2023-07-02T06:56:21;11.95;;;4.97;;
61756;SDS011;57225;61.460;24.060;2023-07-02T06:59:06;7.82;;;4.95;;
61756;SDS011;57225;61.460;24.060;2023-07-02T07:01:50;5.55;;;4.75;;
61756;SDS011;57225;61.460;24.060;2023-07-02T07:04:35;7.07;;;5.20;;
61756;SDS011;57225;61.460;24.060;2023-07-02T07:07:19;7.05;;;5.20;;
61756;SDS011;57225;61.460;24.060;2023-07-02T07:10:04;8.35;;;5.40;;
61756;SDS011;57225;61.460;24.060;2023-07-02T07:12:50;5.57;;;4.70;;
61756;SDS011;57225;61.460;24.060;2023-07-02T07:15:34;8.15;;;5.15;;
61756;SDS011;57225;61.460;24.060;2023-07-02T07:18:19;11.18;;;6.35;;
61756;SDS011;57225;61.460;24.060;2023-07-02T07:21:03;10.95;;;6.68;;
61756;SDS011;57225;61.460;24.060;2023-07-02T07:23:48;9.40;;;6.28;;
61756;SDS011;57225;61.460;24.060;2023-07-02T07:26:32;9.10;;;6.25;;
61756;SDS011;57225;61.460;24.060;2023-07-02T07:29:17;6.63;;;5.05;;
61756;SDS011;57225;61.460;24.060;2023-07-02T07:32:01;6.13;;;4.90;;
61756;SDS011;57225;61.460;24.060;2023-07-02T07:34:46;6.78;;;5.00;;
61756;SDS011;57225;61.460;24.060;2023-07-02T07:37:30;6.63;;;4.80;;
61756;SDS011;57225;61.460;24.060;2023-07-02T07:40:15;6.90;;;4.43;;
61756;SDS011;57225;61.460;24.060;2023-07-02T07:42:59;6.28;;;4.45;;
61756;SDS011;57225;61.460;24.060;2023-07-02T07:45:44;6.25;;;4.70;;
61756;SDS011;57225;61.460;24.060;2023-07-02T07:48:28;5.78;;;4.32;;
61756;SDS011;57225;61.460;24.060;2023-07-02T07:51:13;6.80;;;4.22;;
61756;SDS011;57225;61.460;24.060;2023-07-02T07:53:57;5.88;;;4.47;;
61756;SDS011;57225;61.460;24.060;2023-07-02T07:56:42;6.47;;;4.32;;
61756;SDS011;57225;61.460;24.060;2023-07-02T07:59:26;6.82;;;4.53;;
61756;SDS011;57225;61.460;24.060;2023-07-02T08:02:11;5.07;;;4.07;;
61756;SDS011;57225;61.460;24.060;2023-07-02T08:04:55;8.07;;;4.40;;
61756;SDS011;57225;61.460;24.060;2023-07-02T08:07:40;6.68;;;4.15;;
61756;SDS011;57225;61.460;24.060;2023-07-02T08:10:24;5.35;;;3.85;;
61756;SDS011;57225;61.460;24.060;2023-07-02T08:13:08;6.57;;;3.58;;
61756;SDS011;57225;61.460;24.060;2023-07-02T08:15:53;4.70;;;3.60;;
61756;SDS011;57225;61.460;24.060;2023-07-02T08:18:37;5.45;;;3.63;;
61756;SDS011;57225;61.460;24.060;2023-07-02T08:21:22;4.25;;;3.30;;
61756;SDS011;57225;61.460;24.060;2023-07-02T08:24:06;5.50;;;3.70;;
61756;SDS011;57225;61.460;24.060;2023-07-02T08:26:51;5.90;;;3.20;;
61756;SDS011;57225;61.460;24.060;2023-07-02T08:29:35;6.72;;;3.63;;
61756;SDS011;57225;61.460;24.060;2023-07-02T08:32:20;3.63;;;3.00;;
61756;SDS011;57225;61.460;24.060;2023-07-02T08:35:04;3.97;;;2.78;;
61756;SDS011;57225;61.460;24.060;2023-07-02T08:37:49;3.30;;;2.78;;
61756;SDS011;57225;61.460;24.060;2023-07-02T08:40:33;3.80;;;2.85;;
61756;SDS011;57225;61.460;24.060;2023-07-02T08:43:18;4.00;;;2.80;;
61756;SDS011;57225;61.460;24.060;2023-07-02T08:46:02;4.88;;;2.80;;
61756;SDS011;57225;61.460;24.060;2023-07-02T08:48:48;4.28;;;3.35;;
61756;SDS011;57225;61.460;24.060;2023-07-02T08:51:32;4.50;;;2.78;;
61756;SDS011;57225;61.460;24.060;2023-07-02T08:54:17;3.63;;;2.80;;
61756;SDS011;57225;61.460;24.060;2023-07-02T08:57:01;5.30;;;3.22;;
61756;SDS011;57225;61.460;24.060;2023-07-02T08:59:50;3.95;;;2.90;;
61756;SDS011;57225;61.460;24.060;2023-07-02T09:02:35;3.30;;;2.90;;
61756;SDS011;57225;61.460;24.060;2023-07-02T09:05:19;3.63;;;2.80;;
61756;SDS011;57225;61.460;24.060;2023-07-02T09:08:04;5.57;;;2.90;;
61756;SDS011;57225;61.460;24.060;2023-07-02T09:10:48;5.45;;;2.80;;
61756;SDS011;57225;61.460;24.060;2023-07-02T09:19:12;4.35;;;2.85;;
61756;SDS011;57225;61.460;24.060;2023-07-02T09:21:58;7.75;;;3.88;;
61756;SDS011;57225;61.460;24.060;2023-07-02T09:24:52;4.40;;;2.90;;
61756;SDS011;57225;61.460;24.060;2023-07-02T09:27:39;6.47;;;3.15;;
61756;SDS011;57225;61.460;24.060;2023-07-02T09:30:25;5.70;;;3.17;;
61756;SDS011;57225;61.460;24.060;2023-07-02T09:33:10;4.05;;;3.08;;
61756;SDS011;57225;61.460;24.060;2023-07-02T09:35:54;4.65;;;3.03;;
61756;SDS011;57225;61.460;24.060;2023-07-02T09:38:39;7.78;;;3.17;;
61756;SDS011;57225;61.460;24.060;2023-07-02T09:41:24;4.28;;;3.00;;
61756;SDS011;57225;61.460;24.060;2023-07-02T09:44:11;4.80;;;3.03;;
61756;SDS011;57225;61.460;24.060;2023-07-02T09:47:30;3.97;;;2.88;;
61756;SDS011;57225;61.460;24.060;2023-07-02T09:50:08;7.30;;;2.90;;
61756;SDS011;57225;61.460;24.060;2023-07-02T09:52:54;4.57;;;2.90;;
61756;SDS011;57225;61.460;24.060;2023-07-02T09:55:48;5.00;;;3.10;;
61756;SDS011;57225;61.460;24.060;2023-07-02T09:58:32;4.22;;;2.90;;
61756;SDS011;57225;61.460;24.060;2023-07-02T10:01:17;5.50;;;3.20;;
61756;SDS011;57225;61.460;24.060;2023-07-02T10:04:12;5.45;;;2.78;;
61756;SDS011;57225;61.460;24.060;2023-07-02T10:06:57;6.53;;;3.13;;
61756;SDS011;57225;61.460;24.060;2023-07-02T10:09:45;5.78;;;2.97;;
61756;SDS011;57225;61.460;24.060;2023-07-02T10:12:30;3.47;;;2.72;;
61756;SDS011;57225;61.460;24.060;2023-07-02T10:15:23;3.83;;;2.80;;
61756;SDS011;57225;61.460;24.060;2023-07-02T10:18:09;5.13;;;2.92;;
61756;SDS011;57225;61.460;24.060;2023-07-02T10:20:53;4.00;;;3.10;;
61756;SDS011;57225;61.460;24.060;2023-07-02T10:23:38;5.85;;;2.90;;
61756;SDS011;57225;61.460;24.060;2023-07-02T10:26:22;5.70;;;3.10;;
61756;SDS011;57225;61.460;24.060;2023-07-02T10:29:10;5.95;;;3.05;;
61756;SDS011;57225;61.460;24.060;2023-07-02T10:32:03;5.15;;;3.22;;
61756;SDS011;57225;61.460;24.060;2023-07-02T10:34:48;4.63;;;3.28;;
61756;SDS011;57225;61.460;24.060;2023-07-02T10:37:36;8.75;;;3.67;;
61756;SDS011;57225;61.460;24.060;2023-07-02T10:40:22;5.18;;;3.30;;
61756;SDS011;57225;61.460;24.060;2023-07-02T10:43:06;7.25;;;3.17;;
61756;SDS011;57225;61.460;24.060;2023-07-02T10:45:51;3.65;;;3.00;;
61756;SDS011;57225;61.460;24.060;2023-07-02T10:48:35;4.13;;;3.67;;
61756;SDS011;57225;61.460;24.060;2023-07-02T10:51:20;9.27;;;3.78;;
61756;SDS011;57225;61.460;24.060;2023-07-02T10:54:05;4.97;;;3.70;;
61756;SDS011;57225;61.460;24.060;2023-07-02T10:56:55;5.60;;;3.63;;
61756;SDS011;57225;61.460;24.060;2023-07-02T10:59:41;7.45;;;3.55;;
61756;SDS011;57225;61.460;24.060;2023-07-02T11:02:32;4.90;;;3.58;;
61756;SDS011;57225;61.460;24.060;2023-07-02T11:05:23;7.65;;;4.30;;
61756;SDS011;57225;61.460;24.060;2023-07-02T11:08:08;6.68;;;3.70;;
61756;SDS011;57225;61.460;24.060;2023-07-02T11:11:08;4.68;;;3.22;;
61756;SDS011;57225;61.460;24.060;2023-07-02T11:13:52;6.22;;;3.50;;
61756;SDS011;57225;61.460;24.060;2023-07-02T11:16:37;6.00;;;3.45;;
61756;SDS011;57225;61.460;24.060;2023-07-02T11:19:23;7.30;;;3.65;;
61756;SDS011;57225;61.460;24.060;2023-07-02T11:22:08;6.85;;;4.00;;
61756;SDS011;57225;61.460;24.060;2023-07-02T11:24:52;5.15;;;3.80;;
61756;SDS011;57225;61.460;24.060;2023-07-02T11:27:37;6.45;;;3.90;;
61756;SDS011;57225;61.460;24.060;2023-07-02T11:30:21;6.22;;;4.50;;
61756;SDS011;57225;61.460;24.060;2023-07-02T11:33:06;6.65;;;4.25;;
61756;SDS011;57225;61.460;24.060;2023-07-02T11:35:50;6.57;;;3.78;;
61756;SDS011;57225;61.460;24.060;2023-07-02T11:38:36;4.15;;;3.67;;
61756;SDS011;57225;61.460;24.060;2023-07-02T11:41:20;5.63;;;4.28;;
61756;SDS011;57225;61.460;24.060;2023-07-02T11:44:05;6.28;;;4.20;;
61756;SDS011;57225;61.460;24.060;2023-07-02T11:46:50;5.45;;;3.95;;
61756;SDS011;57225;61.460;24.060;2023-07-02T11:49:34;5.47;;;4.07;;
61756;SDS011;57225;61.460;24.060;2023-07-02T11:52:18;8.77;;;4.28;;
61756;SDS011;57225;61.460;24.060;2023-07-02T11:55:06;6.00;;;3.80;;
61756;SDS011;57225;61.460;24.060;2023-07-02T11:57:51;4.73;;;3.77;;
61756;SDS011;57225;61.460;24.060;2023-07-02T12:00:35;6.78;;;3.70;;
61756;SDS011;57225;61.460;24.060;2023-07-02T12:03:20;5.40;;;3.90;;
61756;SDS011;57225;61.460;24.060;2023-07-02T12:06:04;5.97;;;3.70;;
61756;SDS011;57225;61.460;24.060;2023-07-02T12:08:49;11.02;;;4.57;;
61756;SDS011;57225;61.460;24.060;2023-07-02T12:11:33;6.32;;;3.90;;
61756;SDS011;57225;61.460;24.060;2023-07-02T12:14:18;8.15;;;4.15;;
61756;SDS011;57225;61.460;24.060;2023-07-02T12:17:04;5.43;;;3.80;;
61756;SDS011;57225;61.460;24.060;2023-07-02T12:19:49;5.13;;;4.18;;
61756;SDS011;57225;61.460;24.060;2023-07-02T12:22:33;7.50;;;4.20;;
61756;SDS011;57225;61.460;24.060;2023-07-02T12:25:18;5.90;;;3.80;;
61756;SDS011;57225;61.460;24.060;2023-07-02T12:28:03;4.82;;;4.15;;
61756;SDS011;57225;61.460;24.060;2023-07-02T12:30:48;8.68;;;3.83;;
61756;SDS011;57225;61.460;24.060;2023-07-02T12:33:33;5.03;;;3.85;;
61756;SDS011;57225;61.460;24.060;2023-07-02T12:36:17;5.07;;;3.88;;
61756;SDS011;57225;61.460;24.060;2023-07-02T12:39:02;7.15;;;4.00;;
61756;SDS011;57225;61.460;24.060;2023-07-02T12:41:46;6.50;;;3.72;;
61756;SDS011;57225;61.460;24.060;2023-07-02T12:44:31;7.78;;;3.80;;
61756;SDS011;57225;61.460;24.060;2023-07-02T12:47:15;4.60;;;3.60;;
61756;SDS011;57225;61.460;24.060;2023-07-02T12:50:00;4.60;;;3.65;;
61756;SDS011;57225;61.460;24.060;2023-07-02T12:52:45;5.35;;;3.47;;
61756;SDS011;57225;61.460;24.060;2023-07-02T12:55:29;10.85;;;4.10;;
61756;SDS011;57225;61.460;24.060;2023-07-02T12:58:14;4.63;;;3.72;;
61756;SDS011;57225;61.460;24.060;2023-07-02T13:00:58;4.97;;;3.65;;
61756;SDS011;57225;61.460;24.060;2023-07-02T13:03:46;4.45;;;3.80;;
61756;SDS011;57225;61.460;24.060;2023-07-02T13:06:31;7.55;;;4.25;;
61756;SDS011;57225;61.460;24.060;2023-07-02T13:09:18;6.50;;;4.43;;
61756;SDS011;57225;61.460;24.060;2023-07-02T13:12:03;5.38;;;3.78;;
61756;SDS011;57225;61.460;24.060;2023-07-02T13:14:47;5.20;;;3.95;;
61756;SDS011;57225;61.460;24.060;2023-07-02T13:17:32;4.82;;;3.72;;
61756;SDS011;57225;61.460;24.060;2023-07-02T13:20:16;4.43;;;3.63;;
61756;SDS011;57225;61.460;24.060;2023-07-02T13:23:02;5.35;;;3.40;;
61756;SDS011;57225;61.460;24.060;2023-07-02T13:25:47;5.82;;;3.70;;
61756;SDS011;57225;61.460;24.060;2023-07-02T13:28:32;5.38;;;3.40;;
61756;SDS011;57225;61.460;24.060;2023-07-02T13:31:16;4.22;;;3.83;;
61756;SDS011;57225;61.460;24.060;2023-07-02T13:34:01;5.15;;;3.60;;
61756;SDS011;57225;61.460;24.060;2023-07-02T13:36:45;5.25;;;3.75;;
61756;SDS011;57225;61.460;24.060;2023-07-02T13:39:30;4.38;;;3.20;;
61756;SDS011;57225;61.460;24.060;2023-07-02T13:42:14;5.82;;;3.33;;
61756;SDS011;57225;61.460;24.060;2023-07-02T13:45:00;5.30;;;3.42;;
61756;SDS011;57225;61.460;24.060;2023-07-02T13:47:44;4.03;;;3.45;;
61756;SDS011;57225;61.460;24.060;2023-07-02T13:50:29;8.30;;;4.00;;
61756;SDS011;57225;61.460;24.060;2023-07-02T13:53:29;4.10;;;3.70;;
61756;SDS011;57225;61.460;24.060;2023-07-02T13:56:13;6.47;;;3.40;;
61756;SDS011;57225;61.460;24.060;2023-07-02T13:58:58;5.07;;;3.60;;
61756;SDS011;57225;61.460;24.060;2023-07-02T14:01:44;4.82;;;3.25;;
61756;SDS011;57225;61.460;24.060;2023-07-02T14:04:29;6.53;;;3.22;;
61756;SDS011;57225;61.460;24.060;2023-07-02T14:07:13;6.43;;;3.40;;
61756;SDS011;57225;61.460;24.060;2023-07-02T14:09:57;7.85;;;3.45;;
61756;SDS011;57225;61.460;24.060;2023-07-02T14:12:42;6.07;;;3.83;;
61756;SDS011;57225;61.460;24.060;2023-07-02T14:15:26;4.65;;;3.28;;
61756;SDS011;57225;61.460;24.060;2023-07-02T14:18:11;6.40;;;3.15;;
61756;SDS011;57225;61.460;24.060;2023-07-02T14:20:55;4.22;;;2.92;;
61756;SDS011;57225;61.460;24.060;2023-07-02T14:23:40;7.50;;;2.95;;
61756;SDS011;57225;61.460;24.060;2023-07-02T14:26:25;6.55;;;2.67;;
61756;SDS011;57225;61.460;24.060;2023-07-02T14:29:10;5.43;;;3.17;;
61756;SDS011;57225;61.460;24.060;2023-07-02T14:31:54;5.18;;;3.03;;
61756;SDS011;57225;61.460;24.060;2023-07-02T14:34:39;4.57;;;2.88;;
61756;SDS011;57225;61.460;24.060;2023-07-02T14:37:23;4.47;;;2.65;;
61756;SDS011;57225;61.460;24.060;2023-07-02T14:40:08;6.07;;;2.85;;
61756;SDS011;57225;61.460;24.060;2023-07-02T14:42:53;8.35;;;3.05;;
61756;SDS011;57225;61.460;24.060;2023-07-02T14:45:47;7.20;;;3.00;;
61756;SDS011;57225;61.460;24.060;2023-07-02T14:48:33;3.70;;;2.70;;
61756;SDS011;57225;61.460;24.060;2023-07-02T14:51:18;4.88;;;3.13;;
61756;SDS011;57225;61.460;24.060;2023-07-02T14:54:02;4.85;;;2.65;;
61756;SDS011;57225;61.460;24.060;2023-07-02T14:56:47;7.15;;;3.28;;
61756;SDS011;57225;61.460;24.060;2023-07-02T14:59:32;5.95;;;3.25;;
61756;SDS011;57225;61.460;24.060;2023-07-02T15:02:16;6.25;;;2.92;;
61756;SDS011;57225;61.460;24.060;2023-07-02T15:05:01;5.32;;;3.28;;
61756;SDS011;57225;61.460;24.060;2023-07-02T15:07:46;3.60;;;3.00;;
61756;SDS011;57225;61.460;24.060;2023-07-02T15:10:30;5.57;;;3.28;;
61756;SDS011;57225;61.460;24.060;2023-07-02T15:13:15;11.52;;;2.92;;
61756;SDS011;57225;61.460;24.060;2023-07-02T15:16:01;5.70;;;3.20;;
61756;SDS011;57225;61.460;24.060;2023-07-02T15:18:46;6.78;;;3.10;;
61756;SDS011;57225;61.460;24.060;2023-07-02T15:21:32;6.20;;;3.05;;
61756;SDS011;57225;61.460;24.060;2023-07-02T15:24:16;7.47;;;3.42;;
61756;SDS011;57225;61.460;24.060;2023-07-02T15:27:01;5.70;;;3.00;;
61756;SDS011;57225;61.460;24.060;2023-07-02T15:29:45;6.35;;;3.42;;
61756;SDS011;57225;61.460;24.060;2023-07-02T15:32:30;4.93;;;3.10;;
61756;SDS011;57225;61.460;24.060;2023-07-02T15:35:15;4.43;;;3.55;;
61756;SDS011;57225;61.460;24.060;2023-07-02T15:37:59;8.38;;;3.38;;
61756;SDS011;57225;61.460;24.060;2023-07-02T15:40:45;4.13;;;3.30;;
61756;SDS011;57225;61.460;24.060;2023-07-02T15:43:30;5.40;;;3.63;;
61756;SDS011;57225;61.460;24.060;2023-07-02T15:46:16;7.22;;;3.58;;
61756;SDS011;57225;61.460;24.060;2023-07-02T15:49:00;5.25;;;3.45;;
61756;SDS011;57225;61.460;24.060;2023-07-02T15:51:46;7.40;;;3.65;;
61756;SDS011;57225;61.460;24.060;2023-07-02T15:54:30;3.65;;;3.05;;
61756;SDS011;57225;61.460;24.060;2023-07-02T15:57:16;7.95;;;3.80;;
61756;SDS011;57225;61.460;24.060;2023-07-02T16:00:00;9.18;;;3.50;;
61756;SDS011;57225;61.460;24.060;2023-07-02T16:02:45;5.68;;;3.47;;
61756;SDS011;57225;61.460;24.060;2023-07-02T16:05:30;6.05;;;3.78;;
61756;SDS011;57225;61.460;24.060;2023-07-02T16:08:21;5.75;;;3.70;;
61756;SDS011;57225;61.460;24.060;2023-07-02T16:11:09;6.90;;;3.88;;
61756;SDS011;57225;61.460;24.060;2023-07-02T16:13:55;6.32;;;3.88;;
61756;SDS011;57225;61.460;24.060;2023-07-02T16:16:42;5.53;;;4.00;;
61756;SDS011;57225;61.460;24.060;2023-07-02T16:19:27;4.18;;;3.75;;
61756;SDS011;57225;61.460;24.060;2023-07-02T16:22:11;7.00;;;4.30;;
61756;SDS011;57225;61.460;24.060;2023-07-02T16:24:56;11.93;;;4.55;;